Time;durP1;ratioP1;P1;durP2;ratioP2;P2;SDS_P1;SDS_P2;PMS_P1;PMS_P2;Temp;Humidity;BMP_temperature;BMP_pressure;BME280_temperature;BME280_humidity;BME280_pressure;Samples;Min_cycle;Max_cycle;Signal;HPM_P1;HPM_P2
2021/12/19 05:02:15;;;;;;;39.50;17.13;;;3.80;99.90;;;;;;5196361;23;20617;-68
2021/12/19 05:15:57;;;;;;;41.00;17.53;;;3.90;99.90;;;;;;4957502;29;20451;-68
2021/12/19 05:18:28;;;;;;;41.67;16.73;;;3.90;99.90;;;;;;4956880;29;20970;-68
2021/12/19 05:20:58;;;;;;;37.70;16.67;;;3.80;99.90;;;;;;4966753;28;20493;-68
2021/12/19 05:23:35;;;;;;;33.63;14.63;;;3.80;99.90;;;;;;4978571;28;20459;-68
2021/12/19 05:26:02;;;;;;;37.03;16.27;;;3.80;99.90;;;;;;4978696;28;20475;-68
2021/12/19 05:28:29;;;;;;;30.30;14.13;;;3.80;99.90;;;;;;4978552;28;20889;-69
2021/12/19 05:30:56;;;;;;;31.03;15.17;;;3.80;99.90;;;;;;4978294;28;20474;-68
2021/12/19 05:33:24;;;;;;;30.53;14.20;;;3.80;99.90;;;;;;4978603;28;20444;-68
2021/12/19 05:36:08;;;;;;;33.73;14.80;;;3.90;99.90;;;;;;4978226;28;20820;-68
2021/12/19 05:45:11;;;;;;;27.60;14.07;;;3.80;99.90;;;;;;4978248;28;20482;-67
2021/12/19 05:46:57;;;;;;;26.50;12.60;;;3.80;99.90;;;;;;4977456;28;20538;-68
2021/12/19 05:49:25;;;;;;;25.10;12.27;;;3.80;99.90;;;;;;4978717;28;20524;-68
2021/12/19 05:51:52;;;;;;;25.57;13.70;;;3.80;99.90;;;;;;4984572;28;20476;-68
2021/12/19 05:54:19;;;;;;;20.60;11.77;;;3.80;99.90;;;;;;4982888;28;20462;-68
2021/12/19 05:56:47;;;;;;;25.03;11.40;;;3.90;99.90;;;;;;4977803;28;20462;-67
2021/12/19 05:59:14;;;;;;;21.90;10.30;;;3.80;99.90;;;;;;4978462;28;20546;-68
2021/12/19 06:01:42;;;;;;;21.43;10.97;;;3.90;99.90;;;;;;4977610;28;20486;-68
2021/12/19 06:04:10;;;;;;;21.53;11.93;;;3.80;99.90;;;;;;4977326;28;20479;-67
2021/12/19 06:06:38;;;;;;;20.70;11.67;;;3.80;99.90;;;;;;4976858;28;20454;-67
2021/12/19 06:09:05;;;;;;;18.63;9.87;;;3.80;99.90;;;;;;4977187;28;20965;-67
2021/12/19 06:11:32;;;;;;;22.67;11.93;;;3.80;99.90;;;;;;4977730;28;20475;-68
2021/12/19 06:13:59;;;;;;;20.47;10.87;;;3.80;99.90;;;;;;4977360;28;20455;-68
2021/12/19 06:16:25;;;;;;;21.60;10.70;;;3.90;99.90;;;;;;4976837;28;20458;-68
2021/12/19 06:18:52;;;;;;;24.37;12.13;;;3.90;99.90;;;;;;4977151;28;20511;-68
2021/12/19 06:21:19;;;;;;;24.93;12.30;;;3.90;99.90;;;;;;4977582;28;20483;-67
2021/12/19 06:23:47;;;;;;;30.87;13.73;;;3.90;99.90;;;;;;4977232;28;20533;-68
2021/12/19 06:26:13;;;;;;;22.67;12.87;;;3.80;99.90;;;;;;4977793;28;20455;-68
2021/12/19 06:28:40;;;;;;;26.70;12.47;;;3.80;99.90;;;;;;4977280;28;20462;-68
2021/12/19 06:31:07;;;;;;;21.27;10.90;;;3.70;99.90;;;;;;4977922;28;20470;-68
2021/12/19 06:33:34;;;;;;;19.40;11.57;;;3.70;99.90;;;;;;4977369;28;20458;-68
2021/12/19 06:36:01;;;;;;;21.40;11.40;;;3.80;99.90;;;;;;4977195;28;20482;-69
2021/12/19 06:38:29;;;;;;;23.80;11.83;;;3.80;99.90;;;;;;4976869;28;20455;-68
2021/12/19 06:40:57;;;;;;;21.13;11.20;;;3.70;99.90;;;;;;4979416;28;20479;-68
2021/12/19 06:43:25;;;;;;;25.53;11.90;;;3.70;99.90;;;;;;4978203;28;20475;-68
2021/12/19 06:45:52;;;;;;;18.73;10.70;;;3.70;99.90;;;;;;4977190;28;20479;-68
2021/12/19 06:48:22;;;;;;;23.90;12.07;;;3.70;99.90;;;;;;4976883;28;20946;-69
2021/12/19 06:50:49;;;;;;;24.13;12.17;;;3.70;99.90;;;;;;4976324;28;20506;-69
2021/12/19 06:53:16;;;;;;;28.20;13.23;;;3.70;99.90;;;;;;4977172;28;20811;-69
2021/12/19 06:55:43;;;;;;;28.20;12.43;;;3.70;99.90;;;;;;4977229;28;20455;-68
2021/12/19 06:58:11;;;;;;;22.80;11.17;;;3.70;99.90;;;;;;4977024;28;20557;-68
2021/12/19 07:00:38;;;;;;;29.00;13.30;;;3.70;99.90;;;;;;4976955;28;20497;-68
2021/12/19 07:03:05;;;;;;;26.10;13.00;;;3.70;99.90;;;;;;4976425;28;20482;-68
2021/12/19 07:05:32;;;;;;;24.80;12.33;;;3.70;99.90;;;;;;4976427;28;20463;-68
2021/12/19 07:07:58;;;;;;;25.20;12.57;;;3.70;99.90;;;;;;4976411;28;20477;-69
2021/12/19 07:10:25;;;;;;;29.43;13.73;;;3.80;99.90;;;;;;4977396;28;20455;-69
2021/12/19 07:12:52;;;;;;;32.40;12.97;;;3.60;99.90;;;;;;4977301;28;20463;-69
2021/12/19 07:15:24;;;;;;;27.90;14.50;;;3.50;99.90;;;;;;4976365;28;20942;-68
2021/12/19 07:17:51;;;;;;;28.90;14.20;;;3.60;99.90;;;;;;4975820;28;20447;-69
2021/12/19 07:20:18;;;;;;;34.20;15.07;;;3.60;99.90;;;;;;4976196;28;20459;-69
2021/12/19 07:22:44;;;;;;;29.97;14.53;;;3.50;99.90;;;;;;4976457;28;20455;-69
2021/12/19 07:25:11;;;;;;;28.83;14.40;;;3.60;99.90;;;;;;4976497;28;20451;-69
2021/12/19 07:27:38;;;;;;;34.37;14.60;;;3.50;99.90;;;;;;4976515;28;20466;-69
2021/12/19 07:30:06;;;;;;;29.07;15.50;;;3.30;99.90;;;;;;4976544;28;20455;-69
2021/12/19 07:32:36;;;;;;;31.53;15.67;;;3.40;99.90;;;;;;4976220;28;20471;-70
2021/12/19 07:35:06;;;;;;;33.10;13.77;;;3.40;99.90;;;;;;4976509;28;20466;-69
2021/12/19 07:37:35;;;;;;;32.73;14.47;;;3.50;99.90;;;;;;4976320;28;20439;-69
2021/12/19 07:40:11;;;;;;;37.30;16.00;;;3.50;99.90;;;;;;4976931;28;20451;-69
2021/12/19 07:42:38;;;;;;;27.90;12.80;;;3.50;99.90;;;;;;4977071;28;20449;-69
2021/12/19 07:45:06;;;;;;;26.20;13.60;;;3.60;99.90;;;;;;4976221;28;20479;-69
2021/12/19 07:47:34;;;;;;;25.33;12.30;;;3.60;99.90;;;;;;4976376;28;20824;-69
2021/12/19 07:50:00;;;;;;;26.83;12.67;;;3.70;99.90;;;;;;4976431;28;20474;-69
2021/12/19 07:52:27;;;;;;;25.83;12.67;;;3.60;99.90;;;;;;4975968;28;20483;-69
2021/12/19 07:54:54;;;;;;;25.13;12.13;;;3.70;99.90;;;;;;4976225;28;20466;-69
2021/12/19 07:57:21;;;;;;;22.27;11.57;;;3.80;99.90;;;;;;4976407;28;20829;-69
2021/12/19 07:59:47;;;;;;;23.00;12.33;;;3.80;99.90;;;;;;4977050;28;20455;-69
2021/12/19 08:02:14;;;;;;;19.30;10.60;;;3.80;99.90;;;;;;4977541;28;20844;-69
2021/12/19 08:04:42;;;;;;;22.90;11.77;;;3.80;99.90;;;;;;4978123;28;20483;-69
2021/12/19 08:07:11;;;;;;;20.03;10.77;;;3.90;99.90;;;;;;4976828;28;20446;-69
2021/12/19 08:09:46;;;;;;;16.60;9.87;;;3.80;99.90;;;;;;4976575;28;20490;-69
2021/12/19 08:12:12;;;;;;;17.07;9.97;;;3.80;99.90;;;;;;4976046;28;20466;-69
2021/12/19 08:14:39;;;;;;;16.40;9.30;;;3.80;99.90;;;;;;4976113;28;20461;-69
2021/12/19 08:17:05;;;;;;;16.70;9.60;;;3.70;99.90;;;;;;4975838;28;20215;-69
2021/12/19 08:19:32;;;;;;;16.40;9.93;;;3.70;99.90;;;;;;4975807;28;20459;-69
2021/12/19 08:22:00;;;;;;;18.43;8.83;;;3.80;99.90;;;;;;4976047;28;20551;-69
2021/12/19 08:24:27;;;;;;;19.43;10.37;;;3.80;99.90;;;;;;4975741;28;20520;-69
2021/12/19 08:26:54;;;;;;;14.90;9.33;;;3.70;99.90;;;;;;4976194;28;20459;-69
2021/12/19 08:29:20;;;;;;;17.40;9.87;;;3.80;99.90;;;;;;4981314;28;20571;-69
2021/12/19 08:31:47;;;;;;;13.50;8.70;;;3.80;99.90;;;;;;4981865;28;20501;-69
2021/12/19 08:34:14;;;;;;;15.30;8.57;;;3.80;99.90;;;;;;4981872;28;20435;-71
2021/12/19 08:36:43;;;;;;;17.63;9.93;;;3.80;99.90;;;;;;4980803;28;20907;-70
2021/12/19 08:39:13;;;;;;;15.73;9.50;;;3.80;99.90;;;;;;4979684;28;20451;-71
2021/12/19 08:41:41;;;;;;;18.50;10.07;;;3.90;99.90;;;;;;4979571;28;20573;-71
2021/12/19 08:44:08;;;;;;;13.17;8.10;;;3.80;99.90;;;;;;4979841;28;20828;-70
2021/12/19 08:46:35;;;;;;;12.60;7.43;;;3.80;99.90;;;;;;4979468;28;20455;-70
2021/12/19 08:49:03;;;;;;;12.90;8.37;;;3.90;99.90;;;;;;4979391;28;20454;-70
2021/12/19 08:51:31;;;;;;;14.07;9.30;;;3.90;99.90;;;;;;4978958;28;20475;-69
2021/12/19 08:54:00;;;;;;;16.00;8.53;;;3.90;99.90;;;;;;4979199;28;20505;-69
2021/12/19 08:56:28;;;;;;;9.97;6.80;;;4.00;99.90;;;;;;4979039;28;20521;-69
2021/12/19 08:58:56;;;;;;;11.00;6.17;;;4.00;99.90;;;;;;4979175;28;20776;-69
2021/12/19 09:01:23;;;;;;;16.43;7.53;;;3.90;99.90;;;;;;4978324;28;20493;-70
2021/12/19 09:03:49;;;;;;;9.97;6.77;;;4.00;99.90;;;;;;4978992;28;20848;-71
2021/12/19 09:06:16;;;;;;;10.97;7.30;;;4.00;99.90;;;;;;4978691;28;20459;-70
2021/12/19 09:08:43;;;;;;;10.10;7.10;;;4.00;99.90;;;;;;4978991;28;20586;-70
2021/12/19 09:11:10;;;;;;;9.00;6.63;;;4.10;99.90;;;;;;4978686;28;20478;-69
2021/12/19 09:13:38;;;;;;;9.00;5.60;;;4.10;99.90;;;;;;4978785;28;20816;-69
2021/12/19 09:16:05;;;;;;;9.23;6.73;;;4.10;99.90;;;;;;4977839;28;20458;-69
2021/12/19 09:18:32;;;;;;;9.33;6.77;;;4.10;99.90;;;;;;4978561;28;20805;-69
2021/12/19 09:20:59;;;;;;;9.13;6.70;;;4.20;99.90;;;;;;4978459;28;20502;-73
2021/12/19 09:23:27;;;;;;;8.30;5.50;;;4.30;99.90;;;;;;4978271;28;20826;-70
2021/12/19 09:25:54;;;;;;;9.80;6.70;;;4.10;99.90;;;;;;4978459;28;20465;-72
2021/12/19 09:28:21;;;;;;;7.90;6.73;;;4.20;99.90;;;;;;4978104;28;20466;-71
2021/12/19 09:30:50;;;;;;;10.40;6.97;;;4.20;99.90;;;;;;4978239;28;20479;-70
2021/12/19 09:33:16;;;;;;;9.00;6.57;;;4.30;99.90;;;;;;4978366;28;20455;-70
2021/12/19 09:35:43;;;;;;;10.00;7.70;;;4.30;99.90;;;;;;4979675;28;20458;-68
2021/12/19 09:38:10;;;;;;;8.87;6.27;;;4.30;99.90;;;;;;4977652;28;20454;-72
2021/12/19 09:40:38;;;;;;;8.10;6.20;;;4.30;99.90;;;;;;4977231;28;20486;-69
2021/12/19 09:43:09;;;;;;;8.47;6.47;;;4.40;99.90;;;;;;4980225;28;20513;-69
2021/12/19 09:45:36;;;;;;;7.13;5.20;;;4.40;99.90;;;;;;4979753;28;20470;-70
2021/12/19 09:48:05;;;;;;;5.90;5.30;;;4.40;99.90;;;;;;4979509;28;20442;-69
2021/12/19 09:50:32;;;;;;;9.67;5.87;;;4.50;99.90;;;;;;4979710;28;20479;-69
2021/12/19 09:52:59;;;;;;;6.77;5.40;;;4.60;99.90;;;;;;4979087;28;20954;-70
2021/12/19 09:55:26;;;;;;;8.50;5.30;;;4.60;99.90;;;;;;4978469;28;20455;-70
2021/12/19 09:57:54;;;;;;;7.00;5.10;;;4.70;99.90;;;;;;4978333;28;20458;-70
2021/12/19 10:00:22;;;;;;;8.83;5.50;;;4.60;99.90;;;;;;4977920;28;20455;-70
2021/12/19 10:02:49;;;;;;;8.23;4.90;;;4.70;99.90;;;;;;4978303;28;20444;-68
2021/12/19 10:05:22;;;;;;;8.13;5.83;;;4.50;99.90;;;;;;4978135;28;20487;-68
2021/12/19 10:07:52;;;;;;;6.27;5.30;;;4.70;99.90;;;;;;4978020;28;20910;-69
2021/12/19 10:10:27;;;;;;;6.13;5.23;;;4.70;99.90;;;;;;4977778;28;20777;-69
2021/12/19 10:12:57;;;;;;;6.73;5.03;;;4.60;99.90;;;;;;4978463;28;20450;-69
2021/12/19 10:15:30;;;;;;;6.60;4.40;;;4.80;99.90;;;;;;4977945;28;20443;-68
2021/12/19 10:18:02;;;;;;;6.20;5.17;;;4.80;99.90;;;;;;4977906;28;20447;-70
2021/12/19 10:20:45;;;;;;;5.90;5.07;;;4.90;99.90;;;;;;4977838;28;20455;-68
2021/12/19 10:23:14;;;;;;;4.60;4.20;;;4.90;99.90;;;;;;4979323;28;20443;-69
2021/12/19 10:25:40;;;;;;;7.03;5.50;;;4.90;99.90;;;;;;4977876;28;20838;-71
2021/12/19 10:28:09;;;;;;;6.80;5.40;;;5.00;99.90;;;;;;4977032;28;20965;-69
2021/12/19 10:30:39;;;;;;;6.17;5.20;;;4.90;99.90;;;;;;4977474;28;20554;-70
2021/12/19 10:33:08;;;;;;;6.07;4.37;;;4.90;99.90;;;;;;4978310;28;20819;-69
2021/12/19 10:35:39;;;;;;;6.33;4.93;;;4.90;99.90;;;;;;4977421;28;20458;-69
2021/12/19 10:38:12;;;;;;;5.97;5.37;;;4.60;99.90;;;;;;4977311;28;20443;-69
2021/12/19 10:40:39;;;;;;;6.77;4.70;;;4.70;99.90;;;;;;4976773;28;20487;-69
2021/12/19 10:43:07;;;;;;;5.53;4.93;;;4.70;99.90;;;;;;4976713;28;20451;-69
2021/12/19 10:45:44;;;;;;;6.47;4.73;;;4.70;99.90;;;;;;4976545;28;20491;-69
2021/12/19 10:48:20;;;;;;;5.27;4.80;;;4.80;99.90;;;;;;4977895;28;20440;-71
2021/12/19 10:50:51;;;;;;;5.60;5.10;;;4.90;99.90;;;;;;4977958;28;20474;-69
2021/12/19 10:53:19;;;;;;;5.87;5.27;;;4.90;99.90;;;;;;4977250;28;20444;-70
2021/12/19 10:55:47;;;;;;;7.30;5.73;;;4.90;99.90;;;;;;4977017;28;20463;-71
2021/12/19 10:58:24;;;;;;;5.47;4.90;;;4.90;99.90;;;;;;4977212;28;20470;-70
2021/12/19 11:01:04;;;;;;;5.53;5.00;;;4.80;99.90;;;;;;4978288;28;20487;-71
2021/12/19 11:03:43;;;;;;;5.40;4.87;;;4.80;99.90;;;;;;4977226;28;20451;-70
2021/12/19 11:06:17;;;;;;;5.30;4.63;;;4.80;99.90;;;;;;4978163;28;20459;-69
2021/12/19 11:08:46;;;;;;;4.47;4.07;;;4.80;99.90;;;;;;4980032;28;20439;-69
2021/12/19 11:11:13;;;;;;;5.10;4.60;;;4.90;99.90;;;;;;4977168;28;20475;-70
2021/12/19 11:13:40;;;;;;;3.97;3.67;;;5.00;99.90;;;;;;4977353;28;20459;-72
2021/12/19 11:16:07;;;;;;;3.50;3.30;;;5.00;99.90;;;;;;4977312;28;20435;-70
2021/12/19 11:18:34;;;;;;;4.33;4.03;;;4.80;99.90;;;;;;4977100;28;20455;-71
2021/12/19 11:21:01;;;;;;;4.10;3.80;;;4.90;99.90;;;;;;4976820;28;20483;-70
2021/12/19 11:23:29;;;;;;;4.40;4.00;;;4.90;99.90;;;;;;4976840;28;20462;-70
2021/12/19 11:25:57;;;;;;;4.40;4.07;;;4.90;99.90;;;;;;4976924;28;20475;-70
2021/12/19 11:28:24;;;;;;;4.67;4.30;;;4.90;99.90;;;;;;4977167;28;20467;-71
2021/12/19 11:30:51;;;;;;;4.77;4.43;;;4.90;99.90;;;;;;4977236;28;20485;-70
2021/12/19 11:33:31;;;;;;;5.60;5.20;;;5.00;99.90;;;;;;4976482;28;20459;-71
2021/12/19 11:36:02;;;;;;;4.40;4.10;;;4.90;99.90;;;;;;4976069;28;20457;-71
2021/12/19 11:38:31;;;;;;;4.57;4.17;;;4.90;99.90;;;;;;4977958;28;20915;-71
2021/12/19 11:41:06;;;;;;;5.20;4.80;;;4.90;99.90;;;;;;4977598;28;20482;-71
2021/12/19 11:43:37;;;;;;;4.77;4.37;;;4.90;99.90;;;;;;4977090;28;20443;-71
2021/12/19 11:46:11;;;;;;;5.00;4.60;;;4.90;99.90;;;;;;4976657;28;20542;-71
2021/12/19 11:48:39;;;;;;;5.10;4.70;;;4.90;99.90;;;;;;4976031;28;20492;-70
2021/12/19 11:51:16;;;;;;;5.07;4.67;;;5.00;99.90;;;;;;4976767;28;21006;-71
2021/12/19 11:53:44;;;;;;;5.27;4.83;;;5.00;99.90;;;;;;4977090;28;21022;-70
2021/12/19 11:56:16;;;;;;;6.30;5.70;;;5.00;99.90;;;;;;4976730;28;20456;-70
2021/12/19 11:58:45;;;;;;;6.60;6.00;;;5.00;99.90;;;;;;4976424;28;20578;-71
2021/12/19 12:01:15;;;;;;;6.83;6.30;;;4.90;99.90;;;;;;4977261;28;20483;-71
2021/12/19 12:03:50;;;;;;;6.70;6.10;;;4.90;99.90;;;;;;4976588;28;20466;-70
2021/12/19 12:06:31;;;;;;;7.03;6.37;;;4.90;99.90;;;;;;4976679;28;20463;-70
2021/12/19 12:09:33;;;;;;;7.90;6.60;;;5.00;99.90;;;;;;4976884;28;20914;-70
2021/12/19 12:12:16;;;;;;;8.43;6.93;;;4.90;99.90;;;;;;4976785;28;20525;-71
2021/12/19 12:14:56;;;;;;;10.10;7.60;;;4.80;99.90;;;;;;4976369;28;20438;-71
2021/12/19 12:17:32;;;;;;;10.00;7.87;;;4.80;99.90;;;;;;4976866;28;20462;-71
2021/12/19 12:20:01;;;;;;;7.63;6.93;;;4.80;99.90;;;;;;4976360;28;20454;-70
2021/12/19 12:22:35;;;;;;;8.17;7.37;;;4.80;99.90;;;;;;4976448;28;20475;-71
2021/12/19 12:25:17;;;;;;;10.07;9.07;;;4.80;99.90;;;;;;4977421;28;20966;-70
2021/12/19 12:27:46;;;;;;;8.93;8.17;;;4.80;99.90;;;;;;4976525;28;20817;-70
2021/12/19 12:30:16;;;;;;;9.57;8.57;;;4.70;99.90;;;;;;4980953;28;20463;-71
2021/12/19 12:32:43;;;;;;;8.47;7.67;;;4.70;99.90;;;;;;4978248;28;20451;-70
2021/12/19 12:35:12;;;;;;;9.90;8.90;;;4.70;99.90;;;;;;4977274;28;20455;-70
2021/12/19 12:37:41;;;;;;;8.90;8.10;;;4.70;99.90;;;;;;4979585;28;20947;-71
2021/12/19 12:40:20;;;;;;;9.40;8.57;;;4.60;99.90;;;;;;4975957;28;20510;-70
2021/12/19 12:43:09;;;;;;;11.87;10.67;;;4.60;99.90;;;;;;4980137;28;20530;-72
2021/12/19 12:46:10;;;;;;;9.90;9.00;;;5.30;99.90;;;;;;4980571;28;20469;-71
2021/12/19 12:48:49;;;;;;;10.73;9.73;;;5.70;99.90;;;;;;4976488;28;20439;-71
2021/12/19 12:51:24;;;;;;;11.23;10.03;;;5.80;99.90;;;;;;4976119;28;20467;-70
2021/12/19 12:53:52;;;;;;;11.87;10.70;;;5.70;99.90;;;;;;4976098;28;20809;-70
2021/12/19 12:56:24;;;;;;;13.83;12.13;;;5.60;99.90;;;;;;4976113;28;20455;-69
2021/12/19 12:58:53;;;;;;;13.13;11.87;;;5.60;99.90;;;;;;4976279;28;20523;-70
2021/12/19 13:01:23;;;;;;;12.93;11.53;;;5.50;99.90;;;;;;4975990;28;20550;-70
2021/12/19 13:04:03;;;;;;;15.73;12.70;;;5.30;99.90;;;;;;4975747;28;20446;-70
2021/12/19 13:06:44;;;;;;;13.73;12.10;;;5.20;99.90;;;;;;4976424;28;20928;-69
2021/12/19 13:09:13;;;;;;;13.27;11.87;;;5.00;99.90;;;;;;4975586;28;20906;-69
2021/12/19 13:11:42;;;;;;;12.57;11.23;;;5.00;99.90;;;;;;4975407;28;20521;-70
2021/12/19 13:14:19;;;;;;;11.57;10.37;;;4.80;99.90;;;;;;4975269;28;20459;-70
2021/12/19 13:16:48;;;;;;;13.70;10.70;;;4.70;99.90;;;;;;4978358;28;20803;-70
2021/12/19 13:19:41;;;;;;;11.90;10.70;;;4.70;99.90;;;;;;4978495;28;20802;-69
2021/12/19 13:22:10;;;;;;;11.70;10.50;;;4.70;99.90;;;;;;4978175;28;20507;-70
2021/12/19 13:24:37;;;;;;;12.83;11.03;;;4.70;99.90;;;;;;4977712;28;20471;-69
2021/12/19 13:27:11;;;;;;;13.20;11.30;;;4.60;99.90;;;;;;4978289;28;20462;-70
2021/12/19 13:29:39;;;;;;;12.40;11.10;;;4.60;99.90;;;;;;4978294;28;20446;-70
2021/12/19 13:32:28;;;;;;;14.80;11.40;;;4.60;99.90;;;;;;4978172;28;20483;-70
2021/12/19 13:34:56;;;;;;;12.97;11.67;;;4.70;99.90;;;;;;4978389;28;20439;-71
2021/12/19 13:37:24;;;;;;;13.57;10.87;;;4.60;99.90;;;;;;4977723;28;20977;-70
2021/12/19 13:40:13;;;;;;;15.70;11.17;;;4.60;99.90;;;;;;4978132;28;20962;-70
2021/12/19 13:42:44;;;;;;;14.33;11.00;;;4.50;99.90;;;;;;4978345;28;20439;-70
2021/12/19 13:45:32;;;;;;;13.30;11.60;;;4.50;99.90;;;;;;4979132;28;20474;-70
2021/12/19 13:48:01;;;;;;;18.13;13.10;;;4.40;99.90;;;;;;4977955;28;20957;-70
2021/12/19 13:50:30;;;;;;;13.90;10.43;;;4.30;99.90;;;;;;4978218;28;20459;-70
2021/12/19 13:52:57;;;;;;;12.93;10.90;;;4.30;99.90;;;;;;4978522;28;20466;-71
2021/12/19 13:55:23;;;;;;;12.90;10.63;;;4.20;99.90;;;;;;4978266;28;20436;-70
2021/12/19 13:58:05;;;;;;;12.23;10.80;;;4.30;99.90;;;;;;4977852;28;20455;-70
2021/12/19 14:00:35;;;;;;;10.13;9.13;;;4.30;99.90;;;;;;4977501;28;20898;-70
2021/12/19 14:03:02;;;;;;;11.73;10.50;;;4.30;99.90;;;;;;4977903;28;20460;-70
2021/12/19 14:05:39;;;;;;;11.90;10.80;;;4.30;99.90;;;;;;4977593;28;20819;-70
2021/12/19 14:08:30;;;;;;;10.43;9.37;;;4.30;99.90;;;;;;4977769;28;20447;-69
2021/12/19 14:11:14;;;;;;;11.10;9.30;;;4.40;99.90;;;;;;4977718;28;20489;-70
2021/12/19 14:13:45;;;;;;;11.30;10.10;;;4.40;99.90;;;;;;4977993;28;20765;-70
2021/12/19 14:16:15;;;;;;;11.60;10.40;;;4.40;99.90;;;;;;4977889;28;20447;-70
2021/12/19 14:18:45;;;;;;;11.10;9.93;;;4.40;99.90;;;;;;4978449;28;20439;-70
2021/12/19 14:21:34;;;;;;;11.23;9.23;;;4.50;99.90;;;;;;4977525;28;20475;-70
2021/12/19 14:24:09;;;;;;;10.67;9.60;;;4.40;99.90;;;;;;4978144;28;20436;-70
2021/12/19 14:26:37;;;;;;;8.30;7.50;;;4.30;99.90;;;;;;4978872;28;20573;-70
2021/12/19 14:29:17;;;;;;;8.67;7.87;;;4.20;99.90;;;;;;4979790;28;20456;-69
2021/12/19 14:31:48;;;;;;;9.43;8.43;;;4.20;99.90;;;;;;4980429;28;20482;-69
2021/12/19 14:34:21;;;;;;;10.43;9.33;;;4.20;99.90;;;;;;4977277;28;20455;-70
2021/12/19 14:36:48;;;;;;;11.73;8.77;;;4.20;99.90;;;;;;4977039;28;20773;-70
2021/12/19 14:39:20;;;;;;;12.33;9.13;;;4.10;99.90;;;;;;4976917;28;20455;-69
2021/12/19 14:41:47;;;;;;;12.67;9.83;;;4.00;99.90;;;;;;4976924;28;20486;-70
2021/12/19 14:44:23;;;;;;;11.17;9.73;;;4.00;99.90;;;;;;4977155;28;20459;-71
2021/12/19 14:46:50;;;;;;;13.80;12.07;;;4.10;99.90;;;;;;4976902;28;20459;-70
2021/12/19 14:49:17;;;;;;;14.43;11.40;;;4.10;99.90;;;;;;4976708;28;20477;-70
2021/12/19 14:51:45;;;;;;;15.40;11.43;;;4.10;99.90;;;;;;4976334;28;20486;-70
2021/12/19 14:54:12;;;;;;;14.73;10.70;;;4.10;99.90;;;;;;4977748;28;20784;-70
2021/12/19 14:56:39;;;;;;;13.50;10.40;;;4.10;99.90;;;;;;4976988;28;20450;-71
2021/12/19 14:59:06;;;;;;;15.97;12.40;;;4.20;99.90;;;;;;4977184;28;20455;-70
2021/12/19 15:01:35;;;;;;;14.67;10.60;;;4.10;99.90;;;;;;4977560;28;20487;-71
2021/12/19 15:04:05;;;;;;;17.67;12.70;;;4.20;99.90;;;;;;4977625;28;20459;-70
2021/12/19 15:06:37;;;;;;;16.10;12.97;;;4.20;99.90;;;;;;4976211;28;20502;-71
2021/12/19 15:09:07;;;;;;;19.00;12.50;;;4.20;99.90;;;;;;4976590;28;20443;-70
2021/12/19 15:11:35;;;;;;;20.73;13.00;;;4.20;99.90;;;;;;4976695;28;20533;-70
2021/12/19 15:14:02;;;;;;;19.50;12.80;;;4.20;99.90;;;;;;4976374;28;20557;-70
2021/12/19 15:16:30;;;;;;;23.57;14.00;;;4.20;99.90;;;;;;4976393;28;20463;-70
2021/12/19 15:18:58;;;;;;;19.93;15.30;;;4.20;99.90;;;;;;4975959;28;20959;-70
2021/12/19 15:21:26;;;;;;;25.17;13.83;;;4.30;99.90;;;;;;4976178;28;20482;-70
2021/12/19 15:23:53;;;;;;;22.40;13.57;;;4.10;99.90;;;;;;4976005;28;20466;-71
2021/12/19 15:26:20;;;;;;;26.20;14.30;;;4.20;99.90;;;;;;4976684;28;20483;-69
2021/12/19 15:28:49;;;;;;;25.93;15.10;;;4.30;99.90;;;;;;4976775;28;20459;-69
2021/12/19 15:31:18;;;;;;;25.03;15.80;;;4.20;99.90;;;;;;4976579;28;20517;-70
2021/12/19 15:33:45;;;;;;;27.73;15.50;;;4.20;99.90;;;;;;4976528;28;20546;-69
2021/12/19 15:36:14;;;;;;;26.07;16.00;;;4.30;99.90;;;;;;4976300;28;20451;-69
2021/12/19 15:38:40;;;;;;;23.93;15.50;;;4.30;99.90;;;;;;4975724;28;20455;-70
2021/12/19 15:41:07;;;;;;;29.13;16.23;;;4.30;99.90;;;;;;4976587;28;20479;-71
2021/12/19 15:43:34;;;;;;;27.63;16.20;;;4.40;99.90;;;;;;4976106;28;20458;-70
2021/12/19 15:46:01;;;;;;;28.53;18.03;;;4.30;99.90;;;;;;4976117;28;20480;-69
2021/12/19 15:48:28;;;;;;;30.63;16.83;;;4.40;99.90;;;;;;4975787;28;20938;-70
2021/12/19 15:50:54;;;;;;;25.70;16.07;;;4.40;99.90;;;;;;4978182;28;20479;-71
2021/12/19 15:53:22;;;;;;;28.93;15.67;;;4.40;99.90;;;;;;4976025;28;20822;-69
2021/12/19 15:55:49;;;;;;;24.90;14.60;;;4.30;99.90;;;;;;4975497;28;20459;-69
2021/12/19 15:58:18;;;;;;;30.43;15.93;;;4.30;99.90;;;;;;4975667;28;20473;-69
2021/12/19 16:00:48;;;;;;;29.33;15.27;;;4.30;99.90;;;;;;4975587;28;20917;-69
2021/12/19 16:03:15;;;;;;;31.13;15.97;;;4.30;99.90;;;;;;4976079;28;20455;-69
2021/12/19 16:05:42;;;;;;;26.83;15.70;;;4.30;99.90;;;;;;4975551;28;20486;-70
2021/12/19 16:08:09;;;;;;;27.93;15.67;;;4.30;99.90;;;;;;4975332;28;20459;-71
2021/12/19 16:10:37;;;;;;;27.03;15.63;;;4.30;99.90;;;;;;4975400;28;20490;-71
2021/12/19 16:13:03;;;;;;;26.60;15.37;;;4.30;99.90;;;;;;4975525;28;20455;-71
2021/12/19 16:15:30;;;;;;;28.20;16.07;;;4.30;99.90;;;;;;4975487;28;20451;-70
2021/12/19 16:17:57;;;;;;;23.53;15.83;;;4.30;99.90;;;;;;4975023;28;20461;-70
2021/12/19 16:20:25;;;;;;;28.43;15.60;;;4.30;99.90;;;;;;4975487;28;20451;-70
2021/12/19 16:22:52;;;;;;;28.90;18.87;;;4.40;99.90;;;;;;4975079;28;20824;-70
2021/12/19 16:25:19;;;;;;;31.00;17.00;;;4.40;99.90;;;;;;4977204;28;20451;-70
2021/12/19 16:27:47;;;;;;;32.00;18.53;;;4.30;99.90;;;;;;4980103;28;20479;-71
2021/12/19 16:30:18;;;;;;;34.20;18.03;;;4.40;99.90;;;;;;4980443;28;20459;-71
2021/12/19 16:32:45;;;;;;;29.40;17.30;;;4.40;99.90;;;;;;4979483;28;20439;-72
2021/12/19 16:35:12;;;;;;;31.40;18.23;;;4.40;99.90;;;;;;4976785;28;20463;-71
2021/12/19 16:37:39;;;;;;;35.60;17.70;;;4.40;99.90;;;;;;4975483;28;20939;-72
2021/12/19 16:40:10;;;;;;;31.97;18.87;;;4.40;99.90;;;;;;4975521;28;20498;-72
2021/12/19 16:45:24;;;;;;;34.10;18.43;;;4.40;99.90;;;;;;4975329;28;20419;-72
2021/12/19 16:47:50;;;;;;;34.57;18.50;;;4.40;99.90;;;;;;4975073;28;20872;-71
2021/12/19 16:50:17;;;;;;;32.60;19.00;;;4.50;99.90;;;;;;4977634;28;20435;-74
2021/12/19 16:52:44;;;;;;;35.83;20.53;;;4.50;99.90;;;;;;4978850;28;20439;-72
2021/12/19 16:55:12;;;;;;;36.53;19.30;;;4.40;99.90;;;;;;4978796;28;20463;-72
2021/12/19 16:57:38;;;;;;;35.50;19.97;;;4.40;99.90;;;;;;4978832;28;20996;-72
2021/12/19 17:00:06;;;;;;;38.03;20.70;;;4.40;99.90;;;;;;4978783;28;20465;-72
2021/12/19 17:02:35;;;;;;;38.20;20.77;;;4.40;99.90;;;;;;4978365;28;21008;-73
2021/12/19 17:05:01;;;;;;;43.20;19.03;;;4.30;99.90;;;;;;4978711;28;20455;-72
2021/12/19 17:07:28;;;;;;;41.03;21.63;;;4.30;99.90;;;;;;4978461;28;20840;-72
2021/12/19 17:09:55;;;;;;;34.47;18.77;;;4.30;99.90;;;;;;4978639;28;20461;-74
2021/12/19 17:12:22;;;;;;;43.03;18.50;;;4.30;99.90;;;;;;4978530;28;20483;-74
2021/12/19 17:14:50;;;;;;;38.20;19.30;;;4.30;99.90;;;;;;4978504;28;20491;-74
2021/12/19 17:17:16;;;;;;;32.10;16.87;;;4.30;99.90;;;;;;4978702;28;20455;-73
2021/12/19 17:19:44;;;;;;;33.63;17.60;;;4.30;99.90;;;;;;4979090;28;20466;-73
2021/12/19 17:22:12;;;;;;;33.50;16.37;;;4.20;99.90;;;;;;4981641;28;20475;-73
2021/12/19 17:24:39;;;;;;;37.30;19.87;;;4.20;99.90;;;;;;4979713;28;20514;-72
2021/12/19 17:27:06;;;;;;;34.30;17.67;;;4.20;99.90;;;;;;4978346;28;20868;-72
2021/12/19 17:29:33;;;;;;;30.37;18.03;;;4.20;99.90;;;;;;4978865;28;20824;-72
2021/12/19 17:31:59;;;;;;;24.50;14.67;;;4.20;99.90;;;;;;4978470;28;20474;-72
2021/12/19 17:34:26;;;;;;;31.20;17.10;;;4.20;99.90;;;;;;4978735;28;20463;-73
2021/12/19 17:36:55;;;;;;;29.53;16.00;;;4.20;99.90;;;;;;4978252;28;20447;-72
2021/12/19 17:39:25;;;;;;;31.13;17.40;;;4.10;99.90;;;;;;4978172;28;20490;-71
2021/12/19 17:41:54;;;;;;;31.27;16.20;;;4.20;99.90;;;;;;4978149;28;20535;-70
2021/12/19 17:44:20;;;;;;;28.23;16.00;;;4.10;99.90;;;;;;4978011;28;20458;-70
2021/12/19 17:46:47;;;;;;;33.63;16.23;;;4.10;99.90;;;;;;4978185;28;20475;-69
2021/12/19 17:49:14;;;;;;;32.63;17.20;;;4.10;99.90;;;;;;4978437;28;20816;-70
2021/12/19 17:51:40;;;;;;;32.83;18.40;;;4.00;99.90;;;;;;4978568;28;20483;-70
2021/12/19 17:54:08;;;;;;;39.23;19.80;;;4.00;99.90;;;;;;4977909;28;20977;-72
2021/12/19 17:56:35;;;;;;;33.40;17.30;;;4.00;99.90;;;;;;4978401;28;20451;-70
2021/12/19 17:59:02;;;;;;;31.17;17.57;;;3.80;99.90;;;;;;4978178;28;20513;-71
2021/12/19 18:01:29;;;;;;;37.73;19.53;;;3.80;99.90;;;;;;4976763;28;20487;-71
2021/12/19 18:03:57;;;;;;;32.47;17.93;;;3.80;99.90;;;;;;4978314;28;20466;-70
2021/12/19 18:06:25;;;;;;;33.47;17.87;;;3.90;99.90;;;;;;4978443;28;20891;-71
2021/12/19 18:08:51;;;;;;;27.70;17.10;;;3.80;99.90;;;;;;4978386;28;20455;-71
2021/12/19 18:11:19;;;;;;;29.60;14.87;;;3.80;99.90;;;;;;4978121;28;20482;-70
2021/12/19 18:13:48;;;;;;;32.90;18.20;;;3.80;99.90;;;;;;4978348;28;20479;-70
2021/12/19 18:16:16;;;;;;;32.03;18.67;;;3.90;99.90;;;;;;4978030;28;20443;-70